Isabella — 9HSL7 — position and weather

sailwx.info

Track history (hours):
 
Tides and Currents Weather Stations Pressure Air Temp Water Temp Dewpoint Dewpoint Depression Visibility Wind Speed Wind Dir Waves Ship Positions

Isabella

Last reported at 2014-Oct-21 23:33 UTC. Time now 2014-Oct-22 00:13 UTC.
Position N 44°11' E 008°47'.

Length 244 m; draft 12 m.

Type: Tanker. MMSI: 215545000.

Date/timePositionNaut miles runAvg speedWind from/ knotsBaromVisibWave heightAir tempDewpointWater temp
2014-Oct-21 23:33N 44°11' E 008°47'2 1.6
2014-Oct-21 22:33N 44°12' E 008°45'8 8.1
2014-Oct-21 21:32N 44°19' E 008°51'1111.4
2014-Oct-21 20:33N 44°10' E 008°58'1211.7
2014-Oct-21 19:33N 43°59' E 009°06'1110.9
2014-Oct-21 18:33N 43°50' E 009°14'1110.5
2014-Oct-21 17:33N 43°40' E 009°19'1110.5
2014-Oct-21 16:33N 43°31' E 009°26'1010.4
2014-Oct-21 15:33N 43°21' E 009°30'1110.8
2014-Oct-21 14:33N 43°11' E 009°33'1110.6
2014-Oct-21 13:30N 42°60' E 009°37'40910.2
2014-Oct-19 21:24N 36°54' E 013°35'910.4
2014-Oct-19 20:33N 36°50' E 013°45'1010.2
2014-Oct-19 19:33N 36°45' E 013°56'1010.1
2014-Oct-19 18:33N 36°41' E 014°07'10 9.9
2014-Oct-19 17:33N 36°36' E 014°18'10 9.9
2014-Oct-19 16:32N 36°31' E 014°29'10 9.9
2014-Oct-19 15:33N 36°27' E 014°40'1110.3
2014-Oct-19 14:30N 36°25' E 014°53'40010.2
2014-Oct-17 23:09N 35°47' E 023°06'6 9.6
2014-Oct-17 22:30N 35°47' E 023°13'9 9.6
2014-Oct-17 21:32N 35°46' E 023°25'10 9.7
2014-Oct-17 20:32N 35°45' E 023°37'10 9.8
2014-Oct-17 19:33N 35°45' E 023°48'10 9.6
2014-Oct-17 18:33N 35°45' E 024°00'9 9.2
2014-Oct-17 17:33N 35°45' E 024°12'9 9.3
2014-Oct-17 16:33N 35°44' E 024°23'9 9.1
2014-Oct-17 15:33N 35°44' E 024°34'9 9.1
2014-Oct-17 14:34N 35°44' E 024°45'9 9.3
2014-Oct-17 13:33N 35°44' E 024°57'9 9.3
2014-Oct-17 12:32N 35°44' E 025°09'1110.5
2014-Oct-17 11:31N 35°44' E 025°22'1211.7
2014-Oct-17 10:28N 35°44' E 025°37'1111.9
2014-Oct-17 09:33N 35°44' E 025°50'1211.7
2014-Oct-17 08:33N 35°38' E 026°03'1111.4
2014-Oct-17 07:33N 35°33' E 026°15'1111.4
2014-Oct-17 06:33N 35°27' E 026°27'1010.4
2014-Oct-17 05:33N 35°22' E 026°39'1110.5
2014-Oct-17 04:33N 35°17' E 026°50'1110.8
2014-Oct-17 03:34N 35°17' E 027°03'1110.9
2014-Oct-17 02:33N 35°18' E 027°17'1110.6
2014-Oct-17 01:31N 35°19' E 027°30'1010.8
2014-Oct-17 00:33N 35°19' E 027°43'4310.6
2014-Oct-16 20:31N 35°20' E 028°35'1010.1
2014-Oct-16 19:30N 35°20' E 028°48'1010.1
2014-Oct-16 18:33N 35°21' E 028°59'10 9.9
2014-Oct-16 17:33N 35°21' E 029°12'1010.0
2014-Oct-16 16:33N 35°22' E 029°24'1410.1
2014-Oct-16 15:10N 35°22' E 029°41'710.1
2014-Oct-16 14:30N 35°23' E 029°49'  
2014-Oct-13 23:23N 35°53' E 032°52'31910.3
2014-Oct-12 16:20N 36°10' E 026°18'810.5
2014-Oct-12 15:33N 36°10' E 026°08'1110.6
2014-Oct-12 14:33N 36°10' E 025°55'1110.9
2014-Oct-12 13:33N 36°10' E 025°41'1111.0
2014-Oct-12 12:33N 36°10' E 025°28'1111.1
2014-Oct-12 11:33N 36°10' E 025°14'1110.9
2014-Oct-12 10:33N 36°10' E 025°01'1111.0
2014-Oct-12 09:33N 36°10' E 024°47'1111.0
2014-Oct-12 08:33N 36°10' E 024°33'1111.0
2014-Oct-12 07:33N 36°10' E 024°20'1110.8
2014-Oct-12 06:33N 36°10' E 024°06'  
Track history (hours):
 
Tides and Currents Weather Stations Pressure Air Temp Water Temp Dewpoint Dewpoint Depression Visibility Wind Speed Wind Dir Waves Ship Positions

Isabella

Last reported at 2014-Oct-21 23:33 UTC. Time now 2014-Oct-22 00:13 UTC.
Position N 44°11' E 008°47'.

Length 244 m; draft 12 m.

Type: Tanker. MMSI: 215545000.

Date/timePositionNaut miles runAvg speedWind from/ knotsBaromVisibWave heightAir tempDewpointWater temp
2014-Oct-21 23:33N 44°11' E 008°47'2 1.6
2014-Oct-21 22:33N 44°12' E 008°45'8 8.1
2014-Oct-21 21:32N 44°19' E 008°51'1111.4
2014-Oct-21 20:33N 44°10' E 008°58'1211.7
2014-Oct-21 19:33N 43°59' E 009°06'1110.9
2014-Oct-21 18:33N 43°50' E 009°14'1110.5
2014-Oct-21 17:33N 43°40' E 009°19'1110.5
2014-Oct-21 16:33N 43°31' E 009°26'1010.4
2014-Oct-21 15:33N 43°21' E 009°30'1110.8
2014-Oct-21 14:33N 43°11' E 009°33'1110.6
2014-Oct-21 13:30N 42°60' E 009°37'40910.2
2014-Oct-19 21:24N 36°54' E 013°35'910.4
2014-Oct-19 20:33N 36°50' E 013°45'1010.2
2014-Oct-19 19:33N 36°45' E 013°56'1010.1
2014-Oct-19 18:33N 36°41' E 014°07'10 9.9
2014-Oct-19 17:33N 36°36' E 014°18'10 9.9
2014-Oct-19 16:32N 36°31' E 014°29'10 9.9
2014-Oct-19 15:33N 36°27' E 014°40'1110.3
2014-Oct-19 14:30N 36°25' E 014°53'40010.2
2014-Oct-17 23:09N 35°47' E 023°06'6 9.6
2014-Oct-17 22:30N 35°47' E 023°13'9 9.6
2014-Oct-17 21:32N 35°46' E 023°25'10 9.7
2014-Oct-17 20:32N 35°45' E 023°37'10 9.8
2014-Oct-17 19:33N 35°45' E 023°48'10 9.6
2014-Oct-17 18:33N 35°45' E 024°00'9 9.2
2014-Oct-17 17:33N 35°45' E 024°12'9 9.3
2014-Oct-17 16:33N 35°44' E 024°23'9 9.1
2014-Oct-17 15:33N 35°44' E 024°34'9 9.1
2014-Oct-17 14:34N 35°44' E 024°45'9 9.3
2014-Oct-17 13:33N 35°44' E 024°57'9 9.3
2014-Oct-17 12:32N 35°44' E 025°09'1110.5
2014-Oct-17 11:31N 35°44' E 025°22'1211.7
2014-Oct-17 10:28N 35°44' E 025°37'1111.9
2014-Oct-17 09:33N 35°44' E 025°50'1211.7
2014-Oct-17 08:33N 35°38' E 026°03'1111.4
2014-Oct-17 07:33N 35°33' E 026°15'1111.4
2014-Oct-17 06:33N 35°27' E 026°27'1010.4
2014-Oct-17 05:33N 35°22' E 026°39'1110.5
2014-Oct-17 04:33N 35°17' E 026°50'1110.8
2014-Oct-17 03:34N 35°17' E 027°03'1110.9
2014-Oct-17 02:33N 35°18' E 027°17'1110.6
2014-Oct-17 01:31N 35°19' E 027°30'1010.8
2014-Oct-17 00:33N 35°19' E 027°43'4310.6
2014-Oct-16 20:31N 35°20' E 028°35'1010.1
2014-Oct-16 19:30N 35°20' E 028°48'1010.1
2014-Oct-16 18:33N 35°21' E 028°59'10 9.9
2014-Oct-16 17:33N 35°21' E 029°12'1010.0
2014-Oct-16 16:33N 35°22' E 029°24'1410.1
2014-Oct-16 15:10N 35°22' E 029°41'710.1
2014-Oct-16 14:30N 35°23' E 029°49'  
2014-Oct-13 23:23N 35°53' E 032°52'31910.3
2014-Oct-12 16:20N 36°10' E 026°18'810.5
2014-Oct-12 15:33N 36°10' E 026°08'1110.6
2014-Oct-12 14:33N 36°10' E 025°55'1110.9
2014-Oct-12 13:33N 36°10' E 025°41'1111.0
2014-Oct-12 12:33N 36°10' E 025°28'1111.1
2014-Oct-12 11:33N 36°10' E 025°14'1110.9
2014-Oct-12 10:33N 36°10' E 025°01'1111.0
2014-Oct-12 09:33N 36°10' E 024°47'1111.0
2014-Oct-12 08:33N 36°10' E 024°33'1111.0
2014-Oct-12 07:33N 36°10' E 024°20'1110.8
2014-Oct-12 06:33N 36°10' E 024°06'  

Dump ship's entire track history